sensor_id;sensor_type;location;lat;lon;timestamp;pressure;altitude;pressure_sealevel;temperature;humidity
6853;BME280;3465;42.144;24.722;2022-10-16T00:01:11;100175.09;;;12.62;nan
6853;BME280;3465;42.144;24.722;2022-10-16T00:03:39;100194.25;;;12.77;nan
6853;BME280;3465;42.144;24.722;2022-10-16T00:06:05;100150.91;;;12.54;nan
6853;BME280;3465;42.144;24.722;2022-10-16T00:08:31;100187.16;;;12.64;nan
6853;BME280;3465;42.144;24.722;2022-10-16T00:11:20;100182.69;;;12.56;nan
6853;BME280;3465;42.144;24.722;2022-10-16T00:13:47;100195.50;;;12.51;nan
6853;BME280;3465;42.144;24.722;2022-10-16T00:16:17;100173.66;;;12.30;nan
6853;BME280;3465;42.144;24.722;2022-10-16T00:18:43;100186.59;;;12.33;nan
6853;BME280;3465;42.144;24.722;2022-10-16T00:21:17;100208.78;;;12.26;nan
6853;BME280;3465;42.144;24.722;2022-10-16T00:23:43;100200.84;;;12.16;nan
6853;BME280;3465;42.144;24.722;2022-10-16T00:26:12;100199.69;;;12.00;nan
6853;BME280;3465;42.144;24.722;2022-10-16T00:28:37;100181.28;;;11.81;nan
6853;BME280;3465;42.144;24.722;2022-10-16T00:31:08;100156.16;;;11.69;nan
6853;BME280;3465;42.144;24.722;2022-10-16T00:33:35;100197.78;;;11.90;nan
6853;BME280;3465;42.144;24.722;2022-10-16T00:36:02;100192.66;;;11.92;nan
6853;BME280;3465;42.144;24.722;2022-10-16T00:38:28;100180.38;;;11.79;nan
6853;BME280;3465;42.144;24.722;2022-10-16T00:40:53;100168.91;;;11.63;nan
6853;BME280;3465;42.144;24.722;2022-10-16T00:43:32;100200.09;;;11.77;nan
6853;BME280;3465;42.144;24.722;2022-10-16T00:46:03;100205.13;;;11.72;nan
6853;BME280;3465;42.144;24.722;2022-10-16T00:48:29;100181.56;;;11.54;nan
6853;BME280;3465;42.144;24.722;2022-10-16T00:50:56;100202.28;;;11.62;nan
6853;BME280;3465;42.144;24.722;2022-10-16T00:53:24;100184.81;;;11.47;nan
6853;BME280;3465;42.144;24.722;2022-10-16T00:55:50;100195.72;;;11.37;nan
6853;BME280;3465;42.144;24.722;2022-10-16T00:58:16;100216.25;;;11.34;nan
6853;BME280;3465;42.144;24.722;2022-10-16T01:00:41;100204.69;;;11.15;nan
6853;BME280;3465;42.144;24.722;2022-10-16T01:03:33;100230.59;;;11.24;nan
6853;BME280;3465;42.144;24.722;2022-10-16T01:14:21;100241.19;;;11.01;nan
6853;BME280;3465;42.144;24.722;2022-10-16T01:17:04;100232.25;;;10.87;nan
6853;BME280;3465;42.144;24.722;2022-10-16T01:22:24;100233.16;;;10.89;nan
6853;BME280;3465;42.144;24.722;2022-10-16T01:24:53;100224.59;;;10.88;nan
6853;BME280;3465;42.144;24.722;2022-10-16T01:32:30;100243.69;;;10.98;nan
6853;BME280;3465;42.144;24.722;2022-10-16T01:35:02;100245.25;;;10.93;nan
6853;BME280;3465;42.144;24.722;2022-10-16T01:37:35;100247.44;;;10.78;nan
6853;BME280;3465;42.144;24.722;2022-10-16T01:40:05;100243.06;;;10.74;nan
6853;BME280;3465;42.144;24.722;2022-10-16T01:42:35;100253.59;;;10.84;nan
6853;BME280;3465;42.144;24.722;2022-10-16T01:45:03;100242.28;;;10.78;nan
6853;BME280;3465;42.144;24.722;2022-10-16T01:47:31;100186.56;;;10.41;nan
6853;BME280;3465;42.144;24.722;2022-10-16T01:49:58;100253.44;;;10.78;nan
6853;BME280;3465;42.144;24.722;2022-10-16T01:52:26;100249.22;;;10.80;nan
6853;BME280;3465;42.144;24.722;2022-10-16T01:54:55;100253.56;;;10.83;nan
6853;BME280;3465;42.144;24.722;2022-10-16T01:57:24;100255.00;;;10.72;nan
6853;BME280;3465;42.144;24.722;2022-10-16T01:59:53;100267.88;;;10.73;nan
6853;BME280;3465;42.144;24.722;2022-10-16T02:02:21;100252.06;;;10.58;nan
6853;BME280;3465;42.144;24.722;2022-10-16T02:05:02;100253.78;;;10.58;nan
6853;BME280;3465;42.144;24.722;2022-10-16T02:07:29;100247.66;;;10.53;nan
6853;BME280;3465;42.144;24.722;2022-10-16T02:09:55;100196.34;;;10.23;nan
6853;BME280;3465;42.144;24.722;2022-10-16T02:12:30;100255.44;;;10.56;nan
6853;BME280;3465;42.144;24.722;2022-10-16T02:14:57;100258.84;;;10.55;nan
6853;BME280;3465;42.144;24.722;2022-10-16T02:17:23;100255.16;;;10.45;nan
6853;BME280;3465;42.144;24.722;2022-10-16T02:19:51;100241.94;;;10.32;nan
6853;BME280;3465;42.144;24.722;2022-10-16T02:22:26;100260.09;;;10.39;nan
6853;BME280;3465;42.144;24.722;2022-10-16T02:25:12;100268.72;;;10.41;nan
6853;BME280;3465;42.144;24.722;2022-10-16T02:27:41;100266.72;;;10.31;nan
6853;BME280;3465;42.144;24.722;2022-10-16T02:32:45;100273.50;;;10.28;nan
6853;BME280;3465;42.144;24.722;2022-10-16T02:35:14;100269.94;;;10.23;nan
6853;BME280;3465;42.144;24.722;2022-10-16T02:37:41;100269.84;;;10.20;nan
6853;BME280;3465;42.144;24.722;2022-10-16T02:40:11;100253.84;;;10.00;nan
6853;BME280;3465;42.144;24.722;2022-10-16T02:42:39;100260.66;;;9.99;nan
6853;BME280;3465;42.144;24.722;2022-10-16T02:45:06;100281.69;;;10.15;nan
6853;BME280;3465;42.144;24.722;2022-10-16T02:47:32;100282.13;;;10.01;nan
6853;BME280;3465;42.144;24.722;2022-10-16T02:49:58;100280.34;;;10.00;nan
6853;BME280;3465;42.144;24.722;2022-10-16T02:52:23;100276.81;;;9.95;nan
6853;BME280;3465;42.144;24.722;2022-10-16T02:54:49;100268.53;;;9.76;nan
6853;BME280;3465;42.144;24.722;2022-10-16T02:57:14;100287.53;;;9.82;nan
6853;BME280;3465;42.144;24.722;2022-10-16T02:59:40;100296.97;;;9.83;nan
6853;BME280;3465;42.144;24.722;2022-10-16T03:02:05;100295.28;;;9.84;nan
6853;BME280;3465;42.144;24.722;2022-10-16T03:04:31;100295.16;;;9.79;nan
6853;BME280;3465;42.144;24.722;2022-10-16T03:06:56;100301.22;;;9.83;nan
6853;BME280;3465;42.144;24.722;2022-10-16T03:09:22;100293.47;;;9.81;nan
6853;BME280;3465;42.144;24.722;2022-10-16T03:11:47;100304.78;;;9.88;nan
6853;BME280;3465;42.144;24.722;2022-10-16T03:14:12;100299.91;;;9.95;nan
6853;BME280;3465;42.144;24.722;2022-10-16T03:16:38;100287.84;;;9.93;nan
6853;BME280;3465;42.144;24.722;2022-10-16T03:19:09;100309.47;;;10.01;nan
6853;BME280;3465;42.144;24.722;2022-10-16T03:21:35;100306.03;;;10.00;nan
6853;BME280;3465;42.144;24.722;2022-10-16T03:24:03;100308.78;;;10.06;nan
6853;BME280;3465;42.144;24.722;2022-10-16T03:26:29;100317.16;;;10.01;nan
6853;BME280;3465;42.144;24.722;2022-10-16T03:28:54;100317.75;;;9.92;nan
6853;BME280;3465;42.144;24.722;2022-10-16T03:31:20;100311.41;;;9.80;nan
6853;BME280;3465;42.144;24.722;2022-10-16T03:33:46;100318.28;;;9.81;nan
6853;BME280;3465;42.144;24.722;2022-10-16T03:36:11;100302.41;;;9.66;nan
6853;BME280;3465;42.144;24.722;2022-10-16T03:38:36;100305.59;;;9.59;nan
6853;BME280;3465;42.144;24.722;2022-10-16T03:41:02;100326.22;;;9.62;nan
6853;BME280;3465;42.144;24.722;2022-10-16T03:43:29;100310.47;;;9.50;nan
6853;BME280;3465;42.144;24.722;2022-10-16T03:45:57;100294.25;;;9.24;nan
6853;BME280;3465;42.144;24.722;2022-10-16T03:48:23;100319.31;;;9.33;nan
6853;BME280;3465;42.144;24.722;2022-10-16T03:50:48;100320.78;;;9.25;nan
6853;BME280;3465;42.144;24.722;2022-10-16T03:53:14;100317.41;;;9.27;nan
6853;BME280;3465;42.144;24.722;2022-10-16T03:55:41;100320.81;;;9.26;nan
6853;BME280;3465;42.144;24.722;2022-10-16T03:58:07;100337.31;;;9.34;nan
6853;BME280;3465;42.144;24.722;2022-10-16T04:00:32;100330.13;;;9.24;nan
6853;BME280;3465;42.144;24.722;2022-10-16T04:02:58;100329.00;;;9.16;nan
6853;BME280;3465;42.144;24.722;2022-10-16T04:05:23;100313.63;;;9.16;nan
6853;BME280;3465;42.144;24.722;2022-10-16T04:07:49;100310.34;;;9.20;nan
6853;BME280;3465;42.144;24.722;2022-10-16T04:10:14;100326.75;;;9.25;nan
6853;BME280;3465;42.144;24.722;2022-10-16T04:12:40;100317.19;;;9.20;nan
6853;BME280;3465;42.144;24.722;2022-10-16T04:15:05;100323.88;;;9.16;nan
6853;BME280;3465;42.144;24.722;2022-10-16T04:17:31;100323.88;;;9.16;nan
6853;BME280;3465;42.144;24.722;2022-10-16T04:19:56;100334.03;;;9.13;nan
6853;BME280;3465;42.144;24.722;2022-10-16T04:22:22;100303.28;;;8.88;nan
6853;BME280;3465;42.144;24.722;2022-10-16T04:24:47;100332.00;;;9.03;nan
6853;BME280;3465;42.144;24.722;2022-10-16T04:27:12;100299.28;;;8.71;nan
6853;BME280;3465;42.144;24.722;2022-10-16T04:29:38;100306.63;;;8.60;nan
6853;BME280;3465;42.144;24.722;2022-10-16T04:32:03;100336.28;;;8.79;nan
6853;BME280;3465;42.144;24.722;2022-10-16T04:34:29;100319.78;;;8.71;nan
6853;BME280;3465;42.144;24.722;2022-10-16T04:36:54;100328.34;;;8.72;nan
6853;BME280;3465;42.144;24.722;2022-10-16T04:39:19;100256.19;;;8.34;nan
6853;BME280;3465;42.144;24.722;2022-10-16T04:41:45;100325.16;;;8.79;nan
6853;BME280;3465;42.144;24.722;2022-10-16T04:44:10;100336.13;;;8.75;nan
6853;BME280;3465;42.144;24.722;2022-10-16T04:46:36;100316.91;;;8.62;nan
6853;BME280;3465;42.144;24.722;2022-10-16T04:49:01;100318.53;;;8.60;nan
6853;BME280;3465;42.144;24.722;2022-10-16T04:51:26;100331.75;;;8.72;nan
6853;BME280;3465;42.144;24.722;2022-10-16T04:53:53;100340.06;;;8.65;nan
6853;BME280;3465;42.144;24.722;2022-10-16T04:56:20;100342.66;;;8.66;nan
6853;BME280;3465;42.144;24.722;2022-10-16T04:58:46;100345.22;;;8.66;nan
6853;BME280;3465;42.144;24.722;2022-10-16T05:01:11;100348.53;;;8.64;nan
6853;BME280;3465;42.144;24.722;2022-10-16T05:03:37;100341.84;;;8.67;nan
6853;BME280;3465;42.144;24.722;2022-10-16T05:06:05;100351.53;;;8.76;nan
6853;BME280;3465;42.144;24.722;2022-10-16T05:08:30;100352.38;;;8.75;nan
6853;BME280;3465;42.144;24.722;2022-10-16T05:10:56;100362.53;;;8.73;nan
6853;BME280;3465;42.144;24.722;2022-10-16T05:13:21;100371.78;;;8.94;nan
6853;BME280;3465;42.144;24.722;2022-10-16T05:15:48;100370.53;;;9.31;nan
6853;BME280;3465;42.144;24.722;2022-10-16T05:18:14;100358.69;;;9.88;nan
6853;BME280;3465;42.144;24.722;2022-10-16T05:20:41;100381.53;;;10.65;nan
6853;BME280;3465;42.144;24.722;2022-10-16T05:23:06;100377.53;;;11.38;nan
6853;BME280;3465;42.144;24.722;2022-10-16T05:25:32;100407.75;;;12.16;nan
6853;BME280;3465;42.144;24.722;2022-10-16T05:27:57;100403.91;;;12.76;nan
6853;BME280;3465;42.144;24.722;2022-10-16T05:30:23;100415.22;;;13.28;nan
6853;BME280;3465;42.144;24.722;2022-10-16T05:32:49;100411.91;;;13.35;nan
6853;BME280;3465;42.144;24.722;2022-10-16T05:35:16;100430.38;;;13.57;nan
6853;BME280;3465;42.144;24.722;2022-10-16T05:37:42;100417.28;;;13.99;nan
6853;BME280;3465;42.144;24.722;2022-10-16T05:40:08;100424.34;;;14.69;nan
6853;BME280;3465;42.144;24.722;2022-10-16T05:42:34;100427.50;;;15.17;nan
6853;BME280;3465;42.144;24.722;2022-10-16T05:44:59;100448.94;;;15.89;nan
6853;BME280;3465;42.144;24.722;2022-10-16T05:47:25;100478.91;;;16.72;nan
6853;BME280;3465;42.144;24.722;2022-10-16T05:49:51;100469.53;;;17.01;nan
6853;BME280;3465;42.144;24.722;2022-10-16T05:52:16;100464.50;;;17.63;nan
6853;BME280;3465;42.144;24.722;2022-10-16T05:54:42;100482.72;;;18.29;nan
6853;BME280;3465;42.144;24.722;2022-10-16T05:57:08;100473.13;;;18.77;nan
6853;BME280;3465;42.144;24.722;2022-10-16T05:59:34;100473.75;;;19.39;nan
6853;BME280;3465;42.144;24.722;2022-10-16T06:01:59;100495.78;;;20.21;nan
6853;BME280;3465;42.144;24.722;2022-10-16T06:04:25;100488.16;;;20.85;nan
6853;BME280;3465;42.144;24.722;2022-10-16T06:06:50;100503.47;;;21.16;nan
6853;BME280;3465;42.144;24.722;2022-10-16T06:09:16;100500.28;;;21.60;nan
6853;BME280;3465;42.144;24.722;2022-10-16T06:11:41;100498.19;;;21.85;nan
6853;BME280;3465;42.144;24.722;2022-10-16T06:14:08;100511.09;;;22.47;nan
6853;BME280;3465;42.144;24.722;2022-10-16T06:16:35;100522.38;;;22.99;nan
6853;BME280;3465;42.144;24.722;2022-10-16T06:19:02;100523.19;;;23.45;nan
6853;BME280;3465;42.144;24.722;2022-10-16T06:21:29;100515.41;;;23.42;nan
6853;BME280;3465;42.144;24.722;2022-10-16T06:23:55;100525.31;;;23.68;nan
6853;BME280;3465;42.144;24.722;2022-10-16T06:26:23;100522.56;;;24.11;nan
6853;BME280;3465;42.144;24.722;2022-10-16T06:28:49;100523.53;;;24.42;nan
6853;BME280;3465;42.144;24.722;2022-10-16T06:31:16;100541.00;;;24.78;nan
6853;BME280;3465;42.144;24.722;2022-10-16T06:33:42;100519.66;;;24.90;nan
6853;BME280;3465;42.144;24.722;2022-10-16T06:36:13;100541.81;;;25.12;nan
6853;BME280;3465;42.144;24.722;2022-10-16T06:38:39;100544.97;;;24.92;nan
6853;BME280;3465;42.144;24.722;2022-10-16T06:41:06;100560.41;;;25.37;nan
6853;BME280;3465;42.144;24.722;2022-10-16T06:43:32;100552.44;;;25.07;nan
6853;BME280;3465;42.144;24.722;2022-10-16T06:45:59;100544.25;;;25.49;nan
6853;BME280;3465;42.144;24.722;2022-10-16T06:48:25;100541.25;;;26.17;nan
6853;BME280;3465;42.144;24.722;2022-10-16T06:50:58;100553.25;;;26.78;nan
6853;BME280;3465;42.144;24.722;2022-10-16T06:53:24;100547.19;;;27.01;nan
6853;BME280;3465;42.144;24.722;2022-10-16T06:55:50;100567.00;;;27.35;nan
6853;BME280;3465;42.144;24.722;2022-10-16T06:58:16;100570.88;;;27.25;nan
6853;BME280;3465;42.144;24.722;2022-10-16T07:00:41;100558.97;;;27.38;nan
6853;BME280;3465;42.144;24.722;2022-10-16T07:03:07;100571.25;;;27.62;nan
6853;BME280;3465;42.144;24.722;2022-10-16T07:05:37;100579.53;;;28.21;nan
6853;BME280;3465;42.144;24.722;2022-10-16T07:08:03;100548.63;;;28.43;nan
6853;BME280;3465;42.144;24.722;2022-10-16T07:10:30;100589.47;;;28.58;nan
6853;BME280;3465;42.144;24.722;2022-10-16T07:12:56;100573.53;;;28.79;nan
6853;BME280;3465;42.144;24.722;2022-10-16T07:15:21;100573.97;;;28.90;nan
6853;BME280;3465;42.144;24.722;2022-10-16T07:17:47;100580.09;;;28.71;nan
6853;BME280;3465;42.144;24.722;2022-10-16T07:20:12;100578.59;;;28.85;nan
6853;BME280;3465;42.144;24.722;2022-10-16T07:22:37;100589.88;;;28.89;nan
6853;BME280;3465;42.144;24.722;2022-10-16T07:25:03;100596.81;;;28.71;nan
6853;BME280;3465;42.144;24.722;2022-10-16T07:27:29;100578.63;;;29.04;nan
6853;BME280;3465;42.144;24.722;2022-10-16T07:29:54;100593.78;;;28.80;nan
6853;BME280;3465;42.144;24.722;2022-10-16T07:32:19;100573.28;;;29.05;nan
6853;BME280;3465;42.144;24.722;2022-10-16T07:34:45;100583.28;;;29.58;nan
6853;BME280;3465;42.144;24.722;2022-10-16T07:37:11;100584.03;;;29.80;nan
6853;BME280;3465;42.144;24.722;2022-10-16T07:39:36;100579.09;;;29.72;nan
6853;BME280;3465;42.144;24.722;2022-10-16T07:42:02;100581.81;;;29.89;nan
6853;BME280;3465;42.144;24.722;2022-10-16T07:44:27;100572.13;;;30.42;nan
6853;BME280;3465;42.144;24.722;2022-10-16T07:46:52;100585.34;;;30.95;nan
6853;BME280;3465;42.144;24.722;2022-10-16T07:49:18;100578.34;;;30.94;nan
6853;BME280;3465;42.144;24.722;2022-10-16T07:51:43;100572.03;;;31.12;nan
6853;BME280;3465;42.144;24.722;2022-10-16T07:54:09;100585.44;;;30.77;nan
6853;BME280;3465;42.144;24.722;2022-10-16T07:56:35;100576.75;;;30.90;nan
6853;BME280;3465;42.144;24.722;2022-10-16T07:59:00;100576.56;;;31.27;nan
6853;BME280;3465;42.144;24.722;2022-10-16T08:01:26;100584.94;;;31.20;nan
6853;BME280;3465;42.144;24.722;2022-10-16T08:03:52;100583.03;;;30.89;nan
6853;BME280;3465;42.144;24.722;2022-10-16T08:06:19;100577.66;;;31.23;nan
6853;BME280;3465;42.144;24.722;2022-10-16T08:08:45;100573.81;;;31.29;nan
6853;BME280;3465;42.144;24.722;2022-10-16T08:11:11;100579.19;;;30.95;nan
6853;BME280;3465;42.144;24.722;2022-10-16T08:13:37;100577.75;;;30.18;nan
6853;BME280;3465;42.144;24.722;2022-10-16T08:16:03;100591.28;;;31.00;nan
6853;BME280;3465;42.144;24.722;2022-10-16T08:18:42;100576.56;;;31.27;nan
6853;BME280;3465;42.144;24.722;2022-10-16T08:21:13;100573.56;;;31.50;nan
6853;BME280;3465;42.144;24.722;2022-10-16T08:23:38;100589.06;;;31.42;nan
6853;BME280;3465;42.144;24.722;2022-10-16T08:26:06;100558.34;;;31.85;nan
6853;BME280;3465;42.144;24.722;2022-10-16T08:28:32;100586.81;;;32.45;nan
6853;BME280;3465;42.144;24.722;2022-10-16T08:31:15;100571.41;;;32.50;nan
6853;BME280;3465;42.144;24.722;2022-10-16T08:33:42;100589.84;;;32.83;nan
6853;BME280;3465;42.144;24.722;2022-10-16T08:36:09;100580.75;;;32.57;nan
6853;BME280;3465;42.144;24.722;2022-10-16T08:38:35;100585.44;;;32.23;nan
6853;BME280;3465;42.144;24.722;2022-10-16T08:49:14;100574.56;;;32.12;nan
6853;BME280;3465;42.144;24.722;2022-10-16T08:51:41;100586.13;;;32.42;nan
6853;BME280;3465;42.144;24.722;2022-10-16T08:56:44;100577.34;;;32.40;nan
6853;BME280;3465;42.144;24.722;2022-10-16T08:59:10;100584.81;;;32.02;nan
6853;BME280;3465;42.144;24.722;2022-10-16T09:01:42;100578.69;;;32.01;nan
6853;BME280;3465;42.144;24.722;2022-10-16T09:07:16;100575.97;;;32.33;nan
6853;BME280;3465;42.144;24.722;2022-10-16T09:10:23;100586.78;;;31.35;nan
6853;BME280;3465;42.144;24.722;2022-10-16T09:12:55;100576.81;;;31.06;nan
6853;BME280;3465;42.144;24.722;2022-10-16T09:15:45;100570.97;;;30.65;nan
6853;BME280;3465;42.144;24.722;2022-10-16T09:23:28;100571.16;;;30.08;nan
6853;BME280;3465;42.144;24.722;2022-10-16T09:25:55;100570.44;;;29.69;nan
6853;BME280;3465;42.144;24.722;2022-10-16T09:28:23;100555.97;;;28.15;nan
6853;BME280;3465;42.144;24.722;2022-10-16T09:30:49;100553.91;;;28.01;nan
6853;BME280;3465;42.144;24.722;2022-10-16T09:33:15;100548.16;;;28.75;nan
6853;BME280;3465;42.144;24.722;2022-10-16T09:35:47;100538.44;;;29.53;nan
6853;BME280;3465;42.144;24.722;2022-10-16T09:38:34;100517.84;;;29.60;nan
6853;BME280;3465;42.144;24.722;2022-10-16T09:41:03;100543.84;;;28.53;nan
6853;BME280;3465;42.144;24.722;2022-10-16T09:43:58;100540.72;;;29.03;nan
6853;BME280;3465;42.144;24.722;2022-10-16T09:46:36;100562.88;;;29.21;nan
6853;BME280;3465;42.144;24.722;2022-10-16T09:49:16;100546.22;;;29.76;nan
6853;BME280;3465;42.144;24.722;2022-10-16T09:51:47;100529.47;;;30.47;nan
6853;BME280;3465;42.144;24.722;2022-10-16T09:54:17;100548.84;;;31.16;nan
6853;BME280;3465;42.144;24.722;2022-10-16T09:56:47;100552.19;;;31.36;nan
6853;BME280;3465;42.144;24.722;2022-10-16T09:59:21;100524.88;;;31.34;nan
6853;BME280;3465;42.144;24.722;2022-10-16T10:01:51;100557.72;;;32.11;nan
6853;BME280;3465;42.144;24.722;2022-10-16T10:04:18;100545.72;;;32.20;nan
6853;BME280;3465;42.144;24.722;2022-10-16T10:06:52;100547.31;;;32.67;nan
6853;BME280;3465;42.144;24.722;2022-10-16T10:09:37;100548.44;;;32.93;nan
6853;BME280;3465;42.144;24.722;2022-10-16T10:12:05;100549.69;;;33.01;nan
6853;BME280;3465;42.144;24.722;2022-10-16T10:15:13;100525.84;;;33.14;nan
6853;BME280;3465;42.144;24.722;2022-10-16T10:17:55;100534.56;;;33.58;nan
6853;BME280;3465;42.144;24.722;2022-10-16T10:23:31;100527.72;;;33.54;nan
6853;BME280;3465;42.144;24.722;2022-10-16T10:26:17;100551.84;;;33.93;nan
6853;BME280;3465;42.144;24.722;2022-10-16T10:36:36;100525.41;;;32.48;nan
6853;BME280;3465;42.144;24.722;2022-10-16T10:39:25;100528.66;;;32.53;nan
6853;BME280;3465;42.144;24.722;2022-10-16T10:57:48;100482.53;;;27.12;nan
6853;BME280;3465;42.144;24.722;2022-10-16T11:00:21;100481.28;;;26.25;nan
6853;BME280;3465;42.144;24.722;2022-10-16T11:05:40;100456.66;;;26.76;nan
6853;BME280;3465;42.144;24.722;2022-10-16T11:08:19;100467.19;;;27.23;nan
6853;BME280;3465;42.144;24.722;2022-10-16T11:11:03;100479.53;;;28.52;nan
6853;BME280;3465;42.144;24.722;2022-10-16T11:14:11;100469.22;;;28.66;nan
6853;BME280;3465;42.144;24.722;2022-10-16T11:16:48;100471.47;;;28.75;nan
6853;BME280;3465;42.144;24.722;2022-10-16T11:22:06;100467.66;;;29.19;nan
6853;BME280;3465;42.144;24.722;2022-10-16T11:30:30;100454.16;;;30.49;nan
6853;BME280;3465;42.144;24.722;2022-10-16T11:40:48;100442.38;;;28.75;nan
6853;BME280;3465;42.144;24.722;2022-10-16T11:43:22;100438.03;;;27.03;nan
6853;BME280;3465;42.144;24.722;2022-10-16T11:45:54;100427.91;;;25.93;nan
6853;BME280;3465;42.144;24.722;2022-10-16T11:48:24;100442.75;;;25.95;nan
6853;BME280;3465;42.144;24.722;2022-10-16T11:51:36;100434.00;;;26.45;nan
6853;BME280;3465;42.144;24.722;2022-10-16T11:56:21;100438.22;;;27.66;nan
6853;BME280;3465;42.144;24.722;2022-10-16T12:04:14;100460.31;;;28.07;nan
6853;BME280;3465;42.144;24.722;2022-10-16T12:11:44;100437.41;;;28.08;nan
6853;BME280;3465;42.144;24.722;2022-10-16T12:16:39;100442.66;;;27.43;nan
6853;BME280;3465;42.144;24.722;2022-10-16T12:19:17;100438.16;;;27.00;nan
6853;BME280;3465;42.144;24.722;2022-10-16T12:21:43;100434.44;;;25.81;nan
6853;BME280;3465;42.144;24.722;2022-10-16T12:24:34;100424.91;;;24.93;nan
6853;BME280;3465;42.144;24.722;2022-10-16T12:27:01;100444.69;;;24.43;nan
6853;BME280;3465;42.144;24.722;2022-10-16T12:29:35;100430.78;;;23.71;nan
6853;BME280;3465;42.144;24.722;2022-10-16T12:32:03;100426.59;;;23.24;nan
6853;BME280;3465;42.144;24.722;2022-10-16T12:34:42;100428.16;;;22.49;nan
6853;BME280;3465;42.144;24.722;2022-10-16T12:37:24;100428.38;;;21.90;nan
6853;BME280;3465;42.144;24.722;2022-10-16T12:39:51;100406.69;;;22.32;nan
6853;BME280;3465;42.144;24.722;2022-10-16T12:44:52;100422.75;;;22.12;nan
6853;BME280;3465;42.144;24.722;2022-10-16T12:47:47;100417.03;;;21.89;nan
6853;BME280;3465;42.144;24.722;2022-10-16T12:52:59;100428.50;;;22.31;nan
6853;BME280;3465;42.144;24.722;2022-10-16T12:55:26;100426.72;;;22.33;nan
6853;BME280;3465;42.144;24.722;2022-10-16T13:19:10;100423.03;;;21.96;nan
6853;BME280;3465;42.144;24.722;2022-10-16T13:29:20;100415.06;;;21.47;nan
6853;BME280;3465;42.144;24.722;2022-10-16T13:31:49;100410.34;;;21.12;nan
6853;BME280;3465;42.144;24.722;2022-10-16T13:34:18;100410.53;;;20.97;nan
6853;BME280;3465;42.144;24.722;2022-10-16T13:36:48;100430.59;;;20.92;nan
6853;BME280;3465;42.144;24.722;2022-10-16T13:39:27;100409.00;;;20.80;nan
6853;BME280;3465;42.144;24.722;2022-10-16T13:42:05;100425.34;;;20.94;nan
6853;BME280;3465;42.144;24.722;2022-10-16T13:44:40;100425.66;;;20.73;nan
6853;BME280;3465;42.144;24.722;2022-10-16T13:47:15;100426.75;;;20.49;nan
6853;BME280;3465;42.144;24.722;2022-10-16T13:49:41;100422.28;;;20.60;nan
6853;BME280;3465;42.144;24.722;2022-10-16T13:52:17;100431.69;;;20.75;nan
6853;BME280;3465;42.144;24.722;2022-10-16T13:54:43;100416.72;;;20.90;nan
6853;BME280;3465;42.144;24.722;2022-10-16T13:57:13;100419.16;;;21.05;nan
6853;BME280;3465;42.144;24.722;2022-10-16T13:59:38;100425.00;;;21.24;nan
6853;BME280;3465;42.144;24.722;2022-10-16T14:02:36;100428.81;;;20.96;nan
6853;BME280;3465;42.144;24.722;2022-10-16T14:05:04;100405.31;;;20.97;nan
6853;BME280;3465;42.144;24.722;2022-10-16T14:07:34;100428.13;;;20.83;nan
6853;BME280;3465;42.144;24.722;2022-10-16T14:10:07;100430.94;;;20.64;nan
6853;BME280;3465;42.144;24.722;2022-10-16T14:12:44;100420.72;;;20.44;nan
6853;BME280;3465;42.144;24.722;2022-10-16T14:15:17;100430.28;;;20.48;nan
6853;BME280;3465;42.144;24.722;2022-10-16T14:17:45;100426.72;;;20.55;nan
6853;BME280;3465;42.144;24.722;2022-10-16T14:20:15;100436.97;;;20.70;nan
6853;BME280;3465;42.144;24.722;2022-10-16T14:22:41;100424.41;;;20.27;nan
6853;BME280;3465;42.144;24.722;2022-10-16T14:27:45;100430.38;;;20.38;nan
6853;BME280;3465;42.144;24.722;2022-10-16T14:30:19;100438.03;;;20.54;nan
6853;BME280;3465;42.144;24.722;2022-10-16T14:35:33;100432.16;;;20.34;nan
6853;BME280;3465;42.144;24.722;2022-10-16T14:38:01;100420.75;;;20.43;nan
6853;BME280;3465;42.144;24.722;2022-10-16T14:40:32;100424.31;;;20.36;nan
6853;BME280;3465;42.144;24.722;2022-10-16T14:43:00;100422.41;;;20.50;nan
6853;BME280;3465;42.144;24.722;2022-10-16T14:45:28;100440.53;;;20.65;nan
6853;BME280;3465;42.144;24.722;2022-10-16T14:47:58;100434.88;;;20.24;nan
6853;BME280;3465;42.144;24.722;2022-10-16T14:50:24;100440.06;;;20.25;nan
6853;BME280;3465;42.144;24.722;2022-10-16T14:52:52;100430.53;;;20.23;nan
6853;BME280;3465;42.144;24.722;2022-10-16T14:55:18;100439.94;;;20.39;nan
6853;BME280;3465;42.144;24.722;2022-10-16T14:57:44;100439.91;;;20.43;nan
6853;BME280;3465;42.144;24.722;2022-10-16T15:00:22;100447.81;;;20.36;nan
6853;BME280;3465;42.144;24.722;2022-10-16T15:02:49;100443.56;;;20.24;nan
6853;BME280;3465;42.144;24.722;2022-10-16T15:05:19;100444.44;;;20.25;nan
6853;BME280;3465;42.144;24.722;2022-10-16T15:07:45;100447.16;;;20.08;nan
6853;BME280;3465;42.144;24.722;2022-10-16T15:10:12;100434.28;;;19.90;nan
6853;BME280;3465;42.144;24.722;2022-10-16T15:12:38;100426.56;;;19.78;nan
6853;BME280;3465;42.144;24.722;2022-10-16T15:15:32;100427.38;;;19.84;nan
6853;BME280;3465;42.144;24.722;2022-10-16T15:17:58;100434.41;;;19.78;nan
6853;BME280;3465;42.144;24.722;2022-10-16T15:20:27;100442.09;;;19.90;nan
6853;BME280;3465;42.144;24.722;2022-10-16T15:22:53;100447.34;;;19.87;nan
6853;BME280;3465;42.144;24.722;2022-10-16T15:27:53;100444.06;;;19.59;nan
6853;BME280;3465;42.144;24.722;2022-10-16T15:30:18;100439.78;;;19.54;nan
6853;BME280;3465;42.144;24.722;2022-10-16T15:32:44;100439.78;;;19.49;nan
6853;BME280;3465;42.144;24.722;2022-10-16T15:35:09;100444.19;;;19.47;nan
6853;BME280;3465;42.144;24.722;2022-10-16T15:37:35;100434.72;;;19.30;nan
6853;BME280;3465;42.144;24.722;2022-10-16T15:40:00;100451.13;;;19.44;nan
6853;BME280;3465;42.144;24.722;2022-10-16T15:42:26;100396.75;;;18.81;nan
6853;BME280;3465;42.144;24.722;2022-10-16T15:44:54;100440.88;;;19.05;nan
6853;BME280;3465;42.144;24.722;2022-10-16T15:47:19;100447.00;;;19.02;nan
6853;BME280;3465;42.144;24.722;2022-10-16T15:49:45;100458.28;;;18.97;nan
6853;BME280;3465;42.144;24.722;2022-10-16T15:52:10;100462.69;;;18.81;nan
6853;BME280;3465;42.144;24.722;2022-10-16T15:54:36;100453.19;;;18.68;nan
6853;BME280;3465;42.144;24.722;2022-10-16T15:57:01;100441.06;;;18.60;nan